Bookmark and Share
Track history (hours):
 

Valle Di Andalusia

Last reported at 2014-Apr-18 12:33 UTC. Time now 2014-Apr-23 07:00 UTC.
Position N 36°56' E 013°51'.

Length 176 m; draft 9.1 m.

Type: Ship (hazmat cat A). MMSI: 247046200.

NotesDate/timePositionNaut miles runAvg speedWind from/ knotsBaromVisibWave heightAir tempDewpointWater temp
2014-Apr-18 12:33N 36°56' E 013°51'1313.0
2014-Apr-18 11:33N 37°02' E 013°37'22913.5
2014-Apr-17 18:33N 38°57' E 009°25'1413.7
2014-Apr-17 17:33N 39°03' E 009°10'6 6.0
2014-Apr-17 16:32N 39°05' E 009°02'0 0.0
2014-Apr-17 15:31N 39°05' E 009°02'0 0.0
2014-Apr-17 14:31N 39°05' E 009°02'0 0.0
2014-Apr-17 13:33N 39°05' E 009°02'0 0.0
2014-Apr-17 12:33N 39°05' E 009°02'0 0.0
2014-Apr-17 11:33N 39°05' E 009°02'0 0.0
2014-Apr-17 10:31N 39°05' E 009°02'0 0.0
2014-Apr-17 09:31N 39°05' E 009°02'0 0.0
2014-Apr-17 08:33N 39°05' E 009°02'0 0.0
2014-Apr-17 07:33N 39°05' E 009°02'0 0.0
2014-Apr-17 06:33N 39°05' E 009°02'0 0.0
2014-Apr-17 05:32N 39°05' E 009°02'0 0.0
2014-Apr-17 04:32N 39°05' E 009°02'0 0.0
2014-Apr-17 03:31N 39°05' E 009°02'0 0.0
2014-Apr-17 02:31N 39°05' E 009°02'0 0.0
2014-Apr-17 01:33N 39°05' E 009°02'0 0.0
2014-Apr-17 00:33N 39°05' E 009°02'0 0.0
2014-Apr-16 23:33N 39°05' E 009°02'0 0.0
2014-Apr-16 22:32N 39°05' E 009°02'0 0.0
2014-Apr-16 21:32N 39°05' E 009°02'0 0.0
2014-Apr-16 20:31N 39°05' E 009°02'1 0.8
2014-Apr-16 19:33N 39°05' E 009°03'2 1.4
2014-Apr-16 18:27N 39°04' E 009°04'0 0.1
2014-Apr-16 17:33N 39°04' E 009°04'0 0.0
2014-Apr-16 16:33N 39°04' E 009°04'0 0.0
2014-Apr-16 15:32N 39°04' E 009°04'0 0.0
2014-Apr-16 14:32N 39°04' E 009°04'0 0.0
2014-Apr-16 13:28N 39°04' E 009°04'0 0.0
2014-Apr-16 12:31N 39°04' E 009°04'0 0.0
2014-Apr-16 11:33N 39°04' E 009°04'0 0.2
2014-Apr-16 10:33N 39°04' E 009°04'0 0.1
2014-Apr-16 09:33N 39°04' E 009°04'0 0.0
2014-Apr-16 08:32N 39°04' E 009°04'0 0.0
2014-Apr-16 07:32N 39°04' E 009°04'0 0.0
2014-Apr-16 06:31N 39°04' E 009°04'0 0.0
2014-Apr-16 05:31N 39°04' E 009°04'0 0.0
2014-Apr-16 04:33N 39°04' E 009°04'0 0.1
2014-Apr-16 03:33N 39°04' E 009°04'0 0.0
2014-Apr-16 02:33N 39°04' E 009°04'0 0.0
2014-Apr-16 01:29N 39°04' E 009°04'0 0.0
2014-Apr-16 00:32N 39°04' E 009°04'0 0.1
2014-Apr-15 23:31N 39°04' E 009°04'0 0.0
2014-Apr-15 22:31N 39°04' E 009°04'0 0.0
2014-Apr-15 21:33N 39°04' E 009°04'0 0.0
2014-Apr-15 20:33N 39°04' E 009°04'0 0.0
2014-Apr-15 19:33N 39°04' E 009°04'0 0.0
2014-Apr-15 18:32N 39°04' E 009°04'0 0.0
2014-Apr-15 17:32N 39°04' E 009°04'0 0.2
2014-Apr-15 16:31N 39°04' E 009°04'0 0.1
2014-Apr-15 15:31N 39°04' E 009°04'0 0.1
2014-Apr-15 11:33N 39°04' E 009°04'0 0.0
2014-Apr-15 10:32N 39°04' E 009°04'0 0.0
2014-Apr-15 09:31N 39°04' E 009°04'0 0.0
2014-Apr-15 08:31N 39°04' E 009°04'0 0.1
2014-Apr-15 07:34N 39°04' E 009°04'0 0.1
2014-Apr-15 06:33N 39°04' E 009°04'0 0.1
2014-Apr-15 05:34N 39°04' E 009°04'5 2.4
2014-Apr-15 03:33N 39°02' E 009°10'26812.8
2014-Apr-14 06:34N 43°26' E 010°11'9 9.4
2014-Apr-14 05:34N 43°34' E 010°18'1 0.2
2014-Apr-13 22:33N 43°35' E 010°19'0 0.0
2014-Apr-13 21:32N 43°35' E 010°19'0 0.0
2014-Apr-13 20:29N 43°35' E 010°19'0 0.0
2014-Apr-13 19:31N 43°35' E 010°19'0 0.0
2014-Apr-13 18:31N 43°35' E 010°19'0 0.0
2014-Apr-13 17:33N 43°35' E 010°19'0 0.0
2014-Apr-13 16:33N 43°35' E 010°19'0 0.0
2014-Apr-13 15:33N 43°35' E 010°19'0 0.0
2014-Apr-13 14:32N 43°35' E 010°19'0 0.0
2014-Apr-13 13:32N 43°35' E 010°19'0 0.0
2014-Apr-13 12:33N 43°35' E 010°19'0 0.0
2014-Apr-13 11:31N 43°35' E 010°19'0 0.0
2014-Apr-13 10:34N 43°35' E 010°19'0 0.0
2014-Apr-13 09:33N 43°35' E 010°19'0 0.0
2014-Apr-13 08:33N 43°35' E 010°19'0 0.0
2014-Apr-13 07:32N 43°35' E 010°19'1 0.9
2014-Apr-13 06:33N 43°34' E 010°19'4 4.3
2014-Apr-13 05:32N 43°30' E 010°17'0 0.0
2014-Apr-13 04:32N 43°30' E 010°17'0 0.0
2014-Apr-13 03:31N 43°30' E 010°17'0 0.0
2014-Apr-13 02:28N 43°30' E 010°17'0 0.0
2014-Apr-13 01:33N 43°30' E 010°17'0 0.0
2014-Apr-13 00:33N 43°30' E 010°17'0 0.0
2014-Apr-12 23:32N 43°30' E 010°17'0 0.0
2014-Apr-12 22:26N 43°30' E 010°17'1 1.5
2014-Apr-12 21:33N 43°30' E 010°16'1211.7
2014-Apr-12 20:33N 43°33' E 010°00'1212.5
2014-Apr-12 19:33N 43°45' E 009°54'1514.5
2014-Apr-12 18:33N 43°59' E 009°53'6 5.8
2014-Apr-12 17:28N 44°06' E 009°51'0 0.0
2014-Apr-12 16:31N 44°06' E 009°51'0 0.0
2014-Apr-12 15:30N 44°06' E 009°51'0 0.0
2014-Apr-12 14:33N 44°06' E 009°51'0 0.0
2014-Apr-12 13:32N 44°06' E 009°51'0 0.0
2014-Apr-12 12:32N 44°06' E 009°51'0 0.0
2014-Apr-12 11:31N 44°06' E 009°51'0 0.0
2014-Apr-12 10:28N 44°06' E 009°51'0 0.0
2014-Apr-12 09:31N 44°06' E 009°51'0 0.0
2014-Apr-12 08:33N 44°06' E 009°51'0 0.0
2014-Apr-12 07:18N 44°06' E 009°51'0 0.0
2014-Apr-12 06:32N 44°06' E 009°51'0 0.0
2014-Apr-12 05:32N 44°06' E 009°51'0 0.0
2014-Apr-12 04:31N 44°06' E 009°51'0 0.0
2014-Apr-12 03:31N 44°06' E 009°51'0 0.0
2014-Apr-12 02:31N 44°06' E 009°51'0 0.0
2014-Apr-12 01:33N 44°06' E 009°51'0 0.0
2014-Apr-12 00:33N 44°06' E 009°51'0 0.0
2014-Apr-11 23:32N 44°06' E 009°51'0 0.0
2014-Apr-11 22:32N 44°06' E 009°51'0 0.0
2014-Apr-11 21:31N 44°06' E 009°51'0 0.0
2014-Apr-11 20:31N 44°06' E 009°51'0 0.0
2014-Apr-11 19:31N 44°06' E 009°51'0 0.0
2014-Apr-11 18:33N 44°06' E 009°51'0 0.0
2014-Apr-11 17:33N 44°06' E 009°51'0 0.0
2014-Apr-11 16:32N 44°06' E 009°51'0 0.0
2014-Apr-11 15:32N 44°06' E 009°51'0 0.0
2014-Apr-11 14:31N 44°06' E 009°51'0 0.0
2014-Apr-11 13:31N 44°06' E 009°51'0 0.0
2014-Apr-11 12:30N 44°06' E 009°51'0 0.0
2014-Apr-11 11:33N 44°06' E 009°51'0 0.0
2014-Apr-11 10:30N 44°06' E 009°51'0 0.0
2014-Apr-11 09:32N 44°06' E 009°51'0 0.0
2014-Apr-11 08:32N 44°06' E 009°51'0 0.0
2014-Apr-11 07:31N 44°06' E 009°51'0 0.0
2014-Apr-11 06:31N 44°06' E 009°51'0 0.0
2014-Apr-11 05:34N 44°06' E 009°51'0 0.0
2014-Apr-11 04:33N 44°06' E 009°51'0 0.0
2014-Apr-11 03:33N 44°06' E 009°51'0 0.0
2014-Apr-11 02:32N 44°06' E 009°51'0 0.0
2014-Apr-11 01:32N 44°06' E 009°51'0 0.0
2014-Apr-11 00:31N 44°06' E 009°51'0 0.0
2014-Apr-10 23:28N 44°06' E 009°51'0 0.0
2014-Apr-10 22:33N 44°06' E 009°51'0 0.0
2014-Apr-10 21:33N 44°06' E 009°51'0 0.0
2014-Apr-10 20:30N 44°06' E 009°51'0 0.0
2014-Apr-10 19:33N 44°06' E 009°51'1 0.5
2014-Apr-10 18:33N 44°05' E 009°51'9 8.9
2014-Apr-10 17:33N 43°57' E 009°54'1413.9
2014-Apr-10 16:33N 43°43' E 009°50'1414.4
2014-Apr-10 15:33N 43°29' E 009°46'1514.7
2014-Apr-10 14:33N 43°15' E 009°41'1414.3
2014-Apr-10 13:34N 43°01' E 009°41'1514.4
2014-Apr-10 12:30N 42°45' E 009°41'1414.5
2014-Apr-10 11:34N 42°32' E 009°43'1614.4
2014-Apr-10 10:28N 42°16' E 009°45'1614.3
2014-Apr-10 09:23N 42°01' E 009°47'2813.9
2014-Apr-10 07:23N 41°33' E 009°51'1213.7
2014-Apr-10 06:31N 41°21' E 009°53'1313.3
2014-Apr-10 05:34N 41°08' E 009°54'13012.8
2014-Apr-09 19:23N 38°60' E 009°28'1213.9
2014-Apr-09 18:32N 39°03' E 009°13'8 8.5
2014-Apr-09 17:33N 39°06' E 009°03'1 0.9
2014-Apr-09 16:31N 39°05' E 009°02'0 0.0
2014-Apr-09 15:31N 39°05' E 009°02'0 0.0
2014-Apr-09 14:31N 39°05' E 009°02'0 0.0
2014-Apr-09 13:33N 39°05' E 009°02'0 0.0
2014-Apr-09 12:33N 39°05' E 009°02'0 0.0
2014-Apr-09 11:31N 39°05' E 009°02'0 0.0
2014-Apr-09 10:33N 39°05' E 009°02'0 0.0
2014-Apr-09 09:33N 39°05' E 009°02'0 0.0
2014-Apr-09 08:33N 39°05' E 009°02'0 0.0
2014-Apr-09 07:32N 39°05' E 009°02'0 0.0
2014-Apr-09 06:32N 39°05' E 009°02'0 0.0
2014-Apr-09 05:31N 39°05' E 009°02'0 0.0
2014-Apr-09 04:31N 39°05' E 009°02'0 0.0
2014-Apr-09 03:30N 39°05' E 009°02'0 0.0
2014-Apr-09 02:33N 39°05' E 009°02'0 0.0
2014-Apr-09 01:33N 39°05' E 009°02'0 0.0
2014-Apr-09 00:32N 39°05' E 009°02'0 0.0
2014-Apr-08 23:32N 39°05' E 009°02'0 0.0
2014-Apr-08 22:31N 39°05' E 009°02'0 0.0
2014-Apr-08 21:31N 39°05' E 009°02'0 0.0
2014-Apr-08 20:31N 39°05' E 009°02'0 0.0
2014-Apr-08 19:30N 39°05' E 009°02'0 0.0
2014-Apr-08 18:33N 39°05' E 009°02'0 0.0
2014-Apr-08 17:33N 39°05' E 009°02'0 0.0
2014-Apr-08 16:32N 39°05' E 009°02'0 0.0
2014-Apr-08 15:32N 39°05' E 009°02'0 0.0
2014-Apr-08 14:32N 39°05' E 009°02'0 0.0
2014-Apr-08 13:31N 39°05' E 009°02'  

Dump ship's entire track history

sailing weather and tide predictions

Valle Di Andalusia — IBTJ — position and weather